sensor_id;sensor_type;location;lat;lon;timestamp;temperature;humidity
27506;DHT22;14939;43.596;1.320;2022-12-11T00:01:10;-3.40;99.90
27506;DHT22;14939;43.596;1.320;2022-12-11T00:03:36;-3.40;99.90
27506;DHT22;14939;43.596;1.320;2022-12-11T00:06:10;-3.50;99.90
27506;DHT22;14939;43.596;1.320;2022-12-11T00:08:37;-3.50;99.90
27506;DHT22;14939;43.596;1.320;2022-12-11T00:11:02;-3.50;99.90
27506;DHT22;14939;43.596;1.320;2022-12-11T00:13:29;-3.50;99.90
27506;DHT22;14939;43.596;1.320;2022-12-11T00:15:57;-3.50;99.90
27506;DHT22;14939;43.596;1.320;2022-12-11T00:18:23;-3.50;99.90
27506;DHT22;14939;43.596;1.320;2022-12-11T00:20:49;-3.50;99.90
27506;DHT22;14939;43.596;1.320;2022-12-11T00:23:15;-3.40;99.90
27506;DHT22;14939;43.596;1.320;2022-12-11T00:25:42;-3.40;99.90
27506;DHT22;14939;43.596;1.320;2022-12-11T00:28:09;-3.40;99.90
27506;DHT22;14939;43.596;1.320;2022-12-11T00:30:38;-3.40;99.90
27506;DHT22;14939;43.596;1.320;2022-12-11T00:33:05;-3.50;99.90
27506;DHT22;14939;43.596;1.320;2022-12-11T00:35:30;-3.50;99.90
27506;DHT22;14939;43.596;1.320;2022-12-11T00:37:56;-3.40;99.90
27506;DHT22;14939;43.596;1.320;2022-12-11T00:40:22;-3.40;99.90
27506;DHT22;14939;43.596;1.320;2022-12-11T00:42:47;-3.50;99.90
27506;DHT22;14939;43.596;1.320;2022-12-11T00:45:13;-3.60;99.90
27506;DHT22;14939;43.596;1.320;2022-12-11T00:47:39;-3.60;99.90
27506;DHT22;14939;43.596;1.320;2022-12-11T00:50:05;-3.60;99.90
27506;DHT22;14939;43.596;1.320;2022-12-11T00:52:31;-3.70;99.90
27506;DHT22;14939;43.596;1.320;2022-12-11T00:54:57;-3.70;99.90
27506;DHT22;14939;43.596;1.320;2022-12-11T00:57:22;-3.70;99.90
27506;DHT22;14939;43.596;1.320;2022-12-11T00:59:48;-3.80;99.90
27506;DHT22;14939;43.596;1.320;2022-12-11T01:02:14;-3.80;99.90
27506;DHT22;14939;43.596;1.320;2022-12-11T01:04:39;-3.80;99.90
27506;DHT22;14939;43.596;1.320;2022-12-11T01:07:05;-3.90;99.90
27506;DHT22;14939;43.596;1.320;2022-12-11T01:09:31;-3.80;99.90
27506;DHT22;14939;43.596;1.320;2022-12-11T01:12:15;-3.80;99.90
27506;DHT22;14939;43.596;1.320;2022-12-11T01:14:40;-3.80;99.90
27506;DHT22;14939;43.596;1.320;2022-12-11T01:17:06;-3.80;99.90
27506;DHT22;14939;43.596;1.320;2022-12-11T01:19:32;-3.80;99.90
27506;DHT22;14939;43.596;1.320;2022-12-11T01:21:57;-3.90;99.90
27506;DHT22;14939;43.596;1.320;2022-12-11T01:24:23;-4.00;99.90
27506;DHT22;14939;43.596;1.320;2022-12-11T01:26:49;-4.10;99.90
27506;DHT22;14939;43.596;1.320;2022-12-11T01:29:15;-4.10;99.90
27506;DHT22;14939;43.596;1.320;2022-12-11T01:31:40;-4.00;99.90
27506;DHT22;14939;43.596;1.320;2022-12-11T01:34:06;-4.00;99.90
27506;DHT22;14939;43.596;1.320;2022-12-11T01:36:32;-4.00;99.90
27506;DHT22;14939;43.596;1.320;2022-12-11T01:38:57;-4.10;99.90
27506;DHT22;14939;43.596;1.320;2022-12-11T01:41:23;-4.00;99.90
27506;DHT22;14939;43.596;1.320;2022-12-11T01:44:03;-4.10;99.90
27506;DHT22;14939;43.596;1.320;2022-12-11T01:46:30;-4.10;99.90
27506;DHT22;14939;43.596;1.320;2022-12-11T01:48:57;-4.00;99.90
27506;DHT22;14939;43.596;1.320;2022-12-11T01:51:23;-4.10;99.90
27506;DHT22;14939;43.596;1.320;2022-12-11T01:53:57;-4.10;99.90
27506;DHT22;14939;43.596;1.320;2022-12-11T01:56:23;-4.10;99.90
27506;DHT22;14939;43.596;1.320;2022-12-11T01:58:54;-4.10;99.90
27506;DHT22;14939;43.596;1.320;2022-12-11T02:01:24;-4.10;99.90
27506;DHT22;14939;43.596;1.320;2022-12-11T02:03:52;-4.10;99.90
27506;DHT22;14939;43.596;1.320;2022-12-11T02:06:35;-4.10;99.90
27506;DHT22;14939;43.596;1.320;2022-12-11T02:09:04;-4.20;99.90
27506;DHT22;14939;43.596;1.320;2022-12-11T02:16:48;-4.20;99.90
27506;DHT22;14939;43.596;1.320;2022-12-11T02:22:12;-4.30;99.90
27506;DHT22;14939;43.596;1.320;2022-12-11T02:27:49;-4.30;99.90
27506;DHT22;14939;43.596;1.320;2022-12-11T02:30:21;-4.30;99.90
27506;DHT22;14939;43.596;1.320;2022-12-11T02:32:58;-4.30;99.90
27506;DHT22;14939;43.596;1.320;2022-12-11T02:35:30;-4.20;99.90
27506;DHT22;14939;43.596;1.320;2022-12-11T02:38:02;-4.30;99.90
27506;DHT22;14939;43.596;1.320;2022-12-11T02:40:31;-4.40;99.90
27506;DHT22;14939;43.596;1.320;2022-12-11T02:43:00;-4.30;99.90
27506;DHT22;14939;43.596;1.320;2022-12-11T02:45:27;-4.20;99.90
27506;DHT22;14939;43.596;1.320;2022-12-11T02:47:56;-4.20;99.90
27506;DHT22;14939;43.596;1.320;2022-12-11T02:50:24;-4.10;99.90
27506;DHT22;14939;43.596;1.320;2022-12-11T02:52:52;-4.10;99.90
27506;DHT22;14939;43.596;1.320;2022-12-11T02:55:21;-4.10;99.90
27506;DHT22;14939;43.596;1.320;2022-12-11T02:57:58;-4.10;99.90
27506;DHT22;14939;43.596;1.320;2022-12-11T03:00:27;-4.10;99.90
27506;DHT22;14939;43.596;1.320;2022-12-11T03:02:52;-4.20;99.90
27506;DHT22;14939;43.596;1.320;2022-12-11T03:05:18;-4.20;99.90
27506;DHT22;14939;43.596;1.320;2022-12-11T03:07:44;-4.10;99.90
27506;DHT22;14939;43.596;1.320;2022-12-11T03:10:13;-4.10;99.90
27506;DHT22;14939;43.596;1.320;2022-12-11T03:12:42;-4.20;99.90
27506;DHT22;14939;43.596;1.320;2022-12-11T03:15:12;-4.20;99.90
27506;DHT22;14939;43.596;1.320;2022-12-11T03:18:32;-4.30;99.90
27506;DHT22;14939;43.596;1.320;2022-12-11T03:20:42;-4.30;99.90
27506;DHT22;14939;43.596;1.320;2022-12-11T03:23:43;-4.20;99.90
27506;DHT22;14939;43.596;1.320;2022-12-11T03:26:12;-4.20;99.90
27506;DHT22;14939;43.596;1.320;2022-12-11T03:28:56;-4.30;99.90
27506;DHT22;14939;43.596;1.320;2022-12-11T03:33:54;-4.40;99.90
27506;DHT22;14939;43.596;1.320;2022-12-11T03:36:24;-4.40;99.90
27506;DHT22;14939;43.596;1.320;2022-12-11T03:38:57;-4.40;99.90
27506;DHT22;14939;43.596;1.320;2022-12-11T03:41:26;-4.40;99.90
27506;DHT22;14939;43.596;1.320;2022-12-11T03:43:55;-4.40;99.90
27506;DHT22;14939;43.596;1.320;2022-12-11T03:46:26;-4.50;99.90
27506;DHT22;14939;43.596;1.320;2022-12-11T03:48:53;-4.40;99.90
27506;DHT22;14939;43.596;1.320;2022-12-11T03:51:20;-4.40;99.90
27506;DHT22;14939;43.596;1.320;2022-12-11T03:53:48;-4.40;99.90
27506;DHT22;14939;43.596;1.320;2022-12-11T03:56:15;-4.30;99.90
27506;DHT22;14939;43.596;1.320;2022-12-11T03:58:42;-4.40;99.90
27506;DHT22;14939;43.596;1.320;2022-12-11T04:01:09;-4.50;99.90
27506;DHT22;14939;43.596;1.320;2022-12-11T04:03:35;-4.50;99.90
27506;DHT22;14939;43.596;1.320;2022-12-11T04:06:01;-4.50;99.90
27506;DHT22;14939;43.596;1.320;2022-12-11T04:08:26;-4.50;99.90
27506;DHT22;14939;43.596;1.320;2022-12-11T04:10:52;-4.50;99.90
27506;DHT22;14939;43.596;1.320;2022-12-11T04:13:37;-4.60;99.90
27506;DHT22;14939;43.596;1.320;2022-12-11T04:16:03;-4.60;99.90
27506;DHT22;14939;43.596;1.320;2022-12-11T04:18:28;-4.50;99.90
27506;DHT22;14939;43.596;1.320;2022-12-11T04:21:13;-4.40;99.90
27506;DHT22;14939;43.596;1.320;2022-12-11T04:23:57;-4.40;99.90
27506;DHT22;14939;43.596;1.320;2022-12-11T04:26:45;-4.40;99.90
27506;DHT22;14939;43.596;1.320;2022-12-11T04:29:11;-4.40;99.90
27506;DHT22;14939;43.596;1.320;2022-12-11T04:31:37;-4.40;99.90
27506;DHT22;14939;43.596;1.320;2022-12-11T04:34:03;-4.40;99.90
27506;DHT22;14939;43.596;1.320;2022-12-11T04:36:29;-4.50;99.90
27506;DHT22;14939;43.596;1.320;2022-12-11T04:38:54;-4.50;99.90
27506;DHT22;14939;43.596;1.320;2022-12-11T04:41:20;-4.50;99.90
27506;DHT22;14939;43.596;1.320;2022-12-11T04:43:46;-4.60;99.90
27506;DHT22;14939;43.596;1.320;2022-12-11T04:46:20;-4.60;99.90
27506;DHT22;14939;43.596;1.320;2022-12-11T04:48:47;-4.60;99.90
27506;DHT22;14939;43.596;1.320;2022-12-11T04:51:13;-4.60;99.90
27506;DHT22;14939;43.596;1.320;2022-12-11T04:53:39;-4.50;99.90
27506;DHT22;14939;43.596;1.320;2022-12-11T04:56:07;-4.50;99.90
27506;DHT22;14939;43.596;1.320;2022-12-11T04:58:34;-4.50;99.90
27506;DHT22;14939;43.596;1.320;2022-12-11T05:01:17;-4.50;99.90
27506;DHT22;14939;43.596;1.320;2022-12-11T05:03:43;-4.50;99.90
27506;DHT22;14939;43.596;1.320;2022-12-11T05:06:10;-4.50;99.90
27506;DHT22;14939;43.596;1.320;2022-12-11T05:08:37;-4.50;99.90
27506;DHT22;14939;43.596;1.320;2022-12-11T05:11:06;-4.50;99.90
27506;DHT22;14939;43.596;1.320;2022-12-11T05:13:32;-4.40;99.90
27506;DHT22;14939;43.596;1.320;2022-12-11T05:15:58;-4.30;99.90
27506;DHT22;14939;43.596;1.320;2022-12-11T05:18:24;-4.20;99.90
27506;DHT22;14939;43.596;1.320;2022-12-11T05:21:01;-4.20;99.90
27506;DHT22;14939;43.596;1.320;2022-12-11T05:23:28;-4.20;99.90
27506;DHT22;14939;43.596;1.320;2022-12-11T05:26:03;-4.30;99.90
27506;DHT22;14939;43.596;1.320;2022-12-11T05:28:30;-4.40;99.90
27506;DHT22;14939;43.596;1.320;2022-12-11T05:30:59;-4.50;99.90
27506;DHT22;14939;43.596;1.320;2022-12-11T05:33:25;-4.50;99.90
27506;DHT22;14939;43.596;1.320;2022-12-11T05:35:51;-4.50;99.90
27506;DHT22;14939;43.596;1.320;2022-12-11T05:38:17;-4.50;99.90
27506;DHT22;14939;43.596;1.320;2022-12-11T05:40:43;-4.60;99.90
27506;DHT22;14939;43.596;1.320;2022-12-11T05:43:09;-4.60;99.90
27506;DHT22;14939;43.596;1.320;2022-12-11T05:45:34;-4.60;99.90
27506;DHT22;14939;43.596;1.320;2022-12-11T05:48:00;-4.60;99.90
27506;DHT22;14939;43.596;1.320;2022-12-11T05:50:26;-4.60;99.90
27506;DHT22;14939;43.596;1.320;2022-12-11T05:52:52;-4.60;99.90
27506;DHT22;14939;43.596;1.320;2022-12-11T05:55:17;-4.70;99.90
27506;DHT22;14939;43.596;1.320;2022-12-11T05:57:43;-4.70;99.90
27506;DHT22;14939;43.596;1.320;2022-12-11T06:00:11;-4.60;99.90
27506;DHT22;14939;43.596;1.320;2022-12-11T06:02:37;-4.60;99.90
27506;DHT22;14939;43.596;1.320;2022-12-11T06:05:02;-4.50;99.90
27506;DHT22;14939;43.596;1.320;2022-12-11T06:07:28;-4.50;99.90
27506;DHT22;14939;43.596;1.320;2022-12-11T06:09:54;-4.40;99.90
27506;DHT22;14939;43.596;1.320;2022-12-11T06:12:19;-4.40;99.90
27506;DHT22;14939;43.596;1.320;2022-12-11T06:14:45;-4.30;99.90
27506;DHT22;14939;43.596;1.320;2022-12-11T06:17:11;-4.30;99.90
27506;DHT22;14939;43.596;1.320;2022-12-11T06:19:36;-4.30;99.90
27506;DHT22;14939;43.596;1.320;2022-12-11T06:22:02;-4.30;99.90
27506;DHT22;14939;43.596;1.320;2022-12-11T06:24:28;-4.40;99.90
27506;DHT22;14939;43.596;1.320;2022-12-11T06:26:54;-4.30;99.90
27506;DHT22;14939;43.596;1.320;2022-12-11T06:29:19;-4.40;99.90
27506;DHT22;14939;43.596;1.320;2022-12-11T06:31:45;-4.40;99.90
27506;DHT22;14939;43.596;1.320;2022-12-11T06:34:12;-4.30;99.90
27506;DHT22;14939;43.596;1.320;2022-12-11T06:36:38;-4.30;99.90
27506;DHT22;14939;43.596;1.320;2022-12-11T06:39:04;-4.30;99.90
27506;DHT22;14939;43.596;1.320;2022-12-11T06:41:30;-4.30;99.90
27506;DHT22;14939;43.596;1.320;2022-12-11T06:43:55;-4.30;99.90
27506;DHT22;14939;43.596;1.320;2022-12-11T06:46:21;-4.30;99.90
27506;DHT22;14939;43.596;1.320;2022-12-11T06:48:47;-4.30;99.90
27506;DHT22;14939;43.596;1.320;2022-12-11T06:51:16;-4.30;99.90
27506;DHT22;14939;43.596;1.320;2022-12-11T06:53:42;-4.30;99.90
27506;DHT22;14939;43.596;1.320;2022-12-11T06:56:11;-4.30;99.90
27506;DHT22;14939;43.596;1.320;2022-12-11T06:58:37;-4.30;99.90
27506;DHT22;14939;43.596;1.320;2022-12-11T07:01:04;-4.30;99.90
27506;DHT22;14939;43.596;1.320;2022-12-11T07:03:37;-4.30;99.90
27506;DHT22;14939;43.596;1.320;2022-12-11T07:06:03;-4.20;99.90
27506;DHT22;14939;43.596;1.320;2022-12-11T07:08:29;-4.30;99.90
27506;DHT22;14939;43.596;1.320;2022-12-11T07:11:03;-4.20;99.90
27506;DHT22;14939;43.596;1.320;2022-12-11T07:13:29;-4.20;99.90
27506;DHT22;14939;43.596;1.320;2022-12-11T07:15:57;-4.20;99.90
27506;DHT22;14939;43.596;1.320;2022-12-11T07:18:23;-4.20;99.90
27506;DHT22;14939;43.596;1.320;2022-12-11T07:20:49;-4.20;99.90
27506;DHT22;14939;43.596;1.320;2022-12-11T07:23:14;-4.20;99.90
27506;DHT22;14939;43.596;1.320;2022-12-11T07:25:40;-4.20;99.90
27506;DHT22;14939;43.596;1.320;2022-12-11T07:28:06;-4.10;99.90
27506;DHT22;14939;43.596;1.320;2022-12-11T07:30:32;-4.10;99.90
27506;DHT22;14939;43.596;1.320;2022-12-11T07:32:57;-4.00;99.90
27506;DHT22;14939;43.596;1.320;2022-12-11T07:35:23;-4.00;99.90
27506;DHT22;14939;43.596;1.320;2022-12-11T07:37:49;-4.00;99.90
27506;DHT22;14939;43.596;1.320;2022-12-11T07:40:15;-3.90;99.90
27506;DHT22;14939;43.596;1.320;2022-12-11T07:42:41;-3.90;99.90
27506;DHT22;14939;43.596;1.320;2022-12-11T07:45:07;-3.90;99.90
27506;DHT22;14939;43.596;1.320;2022-12-11T07:47:33;-3.80;99.90
27506;DHT22;14939;43.596;1.320;2022-12-11T07:49:58;-3.70;99.90
27506;DHT22;14939;43.596;1.320;2022-12-11T07:52:24;-3.70;99.90
27506;DHT22;14939;43.596;1.320;2022-12-11T07:54:50;-3.70;99.90
27506;DHT22;14939;43.596;1.320;2022-12-11T07:57:16;-3.60;99.90
27506;DHT22;14939;43.596;1.320;2022-12-11T07:59:42;-3.60;99.90
27506;DHT22;14939;43.596;1.320;2022-12-11T08:02:09;-3.50;99.90
27506;DHT22;14939;43.596;1.320;2022-12-11T08:04:36;-3.60;99.90
27506;DHT22;14939;43.596;1.320;2022-12-11T08:07:02;-3.50;99.90
27506;DHT22;14939;43.596;1.320;2022-12-11T08:09:29;-3.50;99.90
27506;DHT22;14939;43.596;1.320;2022-12-11T08:11:54;-3.40;99.90
27506;DHT22;14939;43.596;1.320;2022-12-11T08:14:20;-3.30;99.90
27506;DHT22;14939;43.596;1.320;2022-12-11T08:16:47;-3.30;99.90
27506;DHT22;14939;43.596;1.320;2022-12-11T08:19:13;-3.20;99.90
27506;DHT22;14939;43.596;1.320;2022-12-11T08:21:40;-3.10;99.90
27506;DHT22;14939;43.596;1.320;2022-12-11T08:24:06;-3.00;99.90
27506;DHT22;14939;43.596;1.320;2022-12-11T08:26:32;-2.90;99.90
27506;DHT22;14939;43.596;1.320;2022-12-11T08:28:59;-2.80;99.90
27506;DHT22;14939;43.596;1.320;2022-12-11T08:31:25;-2.70;99.90
27506;DHT22;14939;43.596;1.320;2022-12-11T08:33:52;-2.60;99.90
27506;DHT22;14939;43.596;1.320;2022-12-11T08:36:20;-2.50;99.90
27506;DHT22;14939;43.596;1.320;2022-12-11T08:38:47;-2.50;99.90
27506;DHT22;14939;43.596;1.320;2022-12-11T08:41:15;-2.40;99.90
27506;DHT22;14939;43.596;1.320;2022-12-11T08:43:41;-2.30;99.90
27506;DHT22;14939;43.596;1.320;2022-12-11T08:46:09;-2.30;99.90
27506;DHT22;14939;43.596;1.320;2022-12-11T08:48:36;-2.20;99.90
27506;DHT22;14939;43.596;1.320;2022-12-11T08:51:04;-2.00;99.90
27506;DHT22;14939;43.596;1.320;2022-12-11T08:53:31;-2.00;99.90
27506;DHT22;14939;43.596;1.320;2022-12-11T08:56:05;-1.90;99.90
27506;DHT22;14939;43.596;1.320;2022-12-11T08:58:31;-1.90;99.90
27506;DHT22;14939;43.596;1.320;2022-12-11T09:00:57;-1.80;99.90
27506;DHT22;14939;43.596;1.320;2022-12-11T09:03:23;-1.80;99.90
27506;DHT22;14939;43.596;1.320;2022-12-11T09:05:49;-1.70;99.90
27506;DHT22;14939;43.596;1.320;2022-12-11T09:08:15;-1.70;99.90
27506;DHT22;14939;43.596;1.320;2022-12-11T09:10:41;-1.70;99.90
27506;DHT22;14939;43.596;1.320;2022-12-11T09:13:07;-1.70;99.90
27506;DHT22;14939;43.596;1.320;2022-12-11T09:15:32;-1.60;99.90
27506;DHT22;14939;43.596;1.320;2022-12-11T09:17:58;-1.50;99.90
27506;DHT22;14939;43.596;1.320;2022-12-11T09:20:24;-1.50;99.90
27506;DHT22;14939;43.596;1.320;2022-12-11T09:22:50;-1.40;99.90
27506;DHT22;14939;43.596;1.320;2022-12-11T09:25:15;-1.30;99.90
27506;DHT22;14939;43.596;1.320;2022-12-11T09:27:41;-1.20;99.90
27506;DHT22;14939;43.596;1.320;2022-12-11T09:30:07;-1.10;99.90
27506;DHT22;14939;43.596;1.320;2022-12-11T09:32:33;-1.00;99.90
27506;DHT22;14939;43.596;1.320;2022-12-11T09:34:59;-1.00;99.90
27506;DHT22;14939;43.596;1.320;2022-12-11T09:37:24;-0.90;99.90
27506;DHT22;14939;43.596;1.320;2022-12-11T09:39:50;-0.80;99.90
27506;DHT22;14939;43.596;1.320;2022-12-11T09:45:13;-0.60;99.90
27506;DHT22;14939;43.596;1.320;2022-12-11T09:47:45;-0.60;99.90
27506;DHT22;14939;43.596;1.320;2022-12-11T09:50:24;-0.60;99.90
27506;DHT22;14939;43.596;1.320;2022-12-11T09:52:58;-0.60;99.90
27506;DHT22;14939;43.596;1.320;2022-12-11T10:06:30;-0.60;99.90
27506;DHT22;14939;43.596;1.320;2022-12-11T10:17:26;-0.70;99.90
27506;DHT22;14939;43.596;1.320;2022-12-11T10:19:56;-0.70;99.90
27506;DHT22;14939;43.596;1.320;2022-12-11T10:22:26;-0.70;99.90
27506;DHT22;14939;43.596;1.320;2022-12-11T10:25:00;-0.60;99.90
27506;DHT22;14939;43.596;1.320;2022-12-11T10:27:32;-0.50;99.90
27506;DHT22;14939;43.596;1.320;2022-12-11T10:30:17;-0.30;99.90
27506;DHT22;14939;43.596;1.320;2022-12-11T10:33:16;-0.10;99.90
27506;DHT22;14939;43.596;1.320;2022-12-11T10:38:19;0.30;99.90
27506;DHT22;14939;43.596;1.320;2022-12-11T10:40:51;0.50;99.90
27506;DHT22;14939;43.596;1.320;2022-12-11T10:43:18;0.70;99.90
27506;DHT22;14939;43.596;1.320;2022-12-11T10:45:52;0.80;99.90
27506;DHT22;14939;43.596;1.320;2022-12-11T10:48:18;0.80;99.90
27506;DHT22;14939;43.596;1.320;2022-12-11T10:50:55;1.10;99.90
27506;DHT22;14939;43.596;1.320;2022-12-11T10:53:21;1.20;99.90
27506;DHT22;14939;43.596;1.320;2022-12-11T10:55:48;1.30;99.90
27506;DHT22;14939;43.596;1.320;2022-12-11T10:58:24;1.10;99.90
27506;DHT22;14939;43.596;1.320;2022-12-11T11:03:33;0.80;99.90
27506;DHT22;14939;43.596;1.320;2022-12-11T11:06:17;0.60;99.90
27506;DHT22;14939;43.596;1.320;2022-12-11T11:08:53;0.50;99.90
27506;DHT22;14939;43.596;1.320;2022-12-11T11:11:22;0.40;99.90
27506;DHT22;14939;43.596;1.320;2022-12-11T11:13:49;0.40;99.90
27506;DHT22;14939;43.596;1.320;2022-12-11T11:16:17;0.40;99.90
27506;DHT22;14939;43.596;1.320;2022-12-11T11:18:53;0.40;99.90
27506;DHT22;14939;43.596;1.320;2022-12-11T11:21:21;0.40;99.90
27506;DHT22;14939;43.596;1.320;2022-12-11T11:23:49;0.50;99.90
27506;DHT22;14939;43.596;1.320;2022-12-11T11:26:16;0.60;99.90
27506;DHT22;14939;43.596;1.320;2022-12-11T11:28:48;0.60;99.90
27506;DHT22;14939;43.596;1.320;2022-12-11T11:31:14;0.70;99.90
27506;DHT22;14939;43.596;1.320;2022-12-11T11:36:27;0.80;99.90
27506;DHT22;14939;43.596;1.320;2022-12-11T11:41:51;0.90;99.90
27506;DHT22;14939;43.596;1.320;2022-12-11T11:44:27;0.90;99.90
27506;DHT22;14939;43.596;1.320;2022-12-11T11:47:21;1.00;99.90
27506;DHT22;14939;43.596;1.320;2022-12-11T11:52:52;1.20;99.90
27506;DHT22;14939;43.596;1.320;2022-12-11T11:58:16;1.30;99.90
27506;DHT22;14939;43.596;1.320;2022-12-11T12:00:43;1.30;99.90
27506;DHT22;14939;43.596;1.320;2022-12-11T12:03:15;1.30;99.90
27506;DHT22;14939;43.596;1.320;2022-12-11T12:05:47;1.30;99.90
27506;DHT22;14939;43.596;1.320;2022-12-11T12:11:19;1.40;99.90
27506;DHT22;14939;43.596;1.320;2022-12-11T12:13:53;1.50;99.90
27506;DHT22;14939;43.596;1.320;2022-12-11T12:21:52;1.80;99.90
27506;DHT22;14939;43.596;1.320;2022-12-11T12:30:13;1.90;99.90
27506;DHT22;14939;43.596;1.320;2022-12-11T12:38:02;2.00;99.90
27506;DHT22;14939;43.596;1.320;2022-12-11T12:40:47;2.20;99.90
27506;DHT22;14939;43.596;1.320;2022-12-11T12:49:03;2.40;99.90
27506;DHT22;14939;43.596;1.320;2022-12-11T12:51:30;2.50;99.90
27506;DHT22;14939;43.596;1.320;2022-12-11T12:54:00;2.60;99.40
27506;DHT22;14939;43.596;1.320;2022-12-11T12:56:29;2.70;99.30
27506;DHT22;14939;43.596;1.320;2022-12-11T12:58:56;2.70;99.90
27506;DHT22;14939;43.596;1.320;2022-12-11T13:01:24;2.80;98.80
27506;DHT22;14939;43.596;1.320;2022-12-11T13:03:58;2.90;99.10
27506;DHT22;14939;43.596;1.320;2022-12-11T13:09:08;2.80;98.60
27506;DHT22;14939;43.596;1.320;2022-12-11T13:11:35;2.70;97.90
27506;DHT22;14939;43.596;1.320;2022-12-11T13:14:04;2.60;98.20
27506;DHT22;14939;43.596;1.320;2022-12-11T13:19:01;2.80;98.50
27506;DHT22;14939;43.596;1.320;2022-12-11T13:21:33;2.90;98.60
27506;DHT22;14939;43.596;1.320;2022-12-11T13:26:38;3.20;97.70
27506;DHT22;14939;43.596;1.320;2022-12-11T13:29:04;3.30;96.90
27506;DHT22;14939;43.596;1.320;2022-12-11T13:31:39;3.20;95.70
27506;DHT22;14939;43.596;1.320;2022-12-11T13:34:15;3.10;95.50
27506;DHT22;14939;43.596;1.320;2022-12-11T13:36:54;3.20;96.10
27506;DHT22;14939;43.596;1.320;2022-12-11T13:39:26;3.20;95.70
27506;DHT22;14939;43.596;1.320;2022-12-11T13:42:24;3.40;95.20
27506;DHT22;14939;43.596;1.320;2022-12-11T13:44:51;3.30;94.80
27506;DHT22;14939;43.596;1.320;2022-12-11T13:47:18;3.40;94.50
27506;DHT22;14939;43.596;1.320;2022-12-11T13:49:48;3.40;94.00
27506;DHT22;14939;43.596;1.320;2022-12-11T13:52:19;3.30;92.40
27506;DHT22;14939;43.596;1.320;2022-12-11T13:54:48;3.40;92.80
27506;DHT22;14939;43.596;1.320;2022-12-11T13:57:17;3.30;93.00
27506;DHT22;14939;43.596;1.320;2022-12-11T13:59:53;3.30;92.50
27506;DHT22;14939;43.596;1.320;2022-12-11T14:04:49;3.10;92.70
27506;DHT22;14939;43.596;1.320;2022-12-11T14:07:29;3.10;92.50
27506;DHT22;14939;43.596;1.320;2022-12-11T14:10:00;3.10;92.60
27506;DHT22;14939;43.596;1.320;2022-12-11T14:12:27;3.10;92.60
27506;DHT22;14939;43.596;1.320;2022-12-11T14:14:56;3.00;92.90
27506;DHT22;14939;43.596;1.320;2022-12-11T14:17:28;2.90;92.40
27506;DHT22;14939;43.596;1.320;2022-12-11T14:19:56;2.80;92.50
27506;DHT22;14939;43.596;1.320;2022-12-11T14:22:25;2.90;93.00
27506;DHT22;14939;43.596;1.320;2022-12-11T14:24:54;2.90;93.30
27506;DHT22;14939;43.596;1.320;2022-12-11T14:27:20;2.90;93.50
27506;DHT22;14939;43.596;1.320;2022-12-11T14:29:46;2.90;93.70
27506;DHT22;14939;43.596;1.320;2022-12-11T14:32:40;2.90;93.80
27506;DHT22;14939;43.596;1.320;2022-12-11T14:35:05;2.90;93.80
27506;DHT22;14939;43.596;1.320;2022-12-11T14:37:35;3.10;94.30
27506;DHT22;14939;43.596;1.320;2022-12-11T14:40:05;3.30;94.60
27506;DHT22;14939;43.596;1.320;2022-12-11T14:42:40;3.30;95.20
27506;DHT22;14939;43.596;1.320;2022-12-11T14:45:20;3.40;95.20
27506;DHT22;14939;43.596;1.320;2022-12-11T14:47:47;3.40;95.30
27506;DHT22;14939;43.596;1.320;2022-12-11T14:50:27;3.50;95.30
27506;DHT22;14939;43.596;1.320;2022-12-11T14:53:01;3.50;95.00
27506;DHT22;14939;43.596;1.320;2022-12-11T14:55:30;3.60;94.10
27506;DHT22;14939;43.596;1.320;2022-12-11T14:58:21;3.50;93.70
27506;DHT22;14939;43.596;1.320;2022-12-11T15:03:31;3.20;94.10
27506;DHT22;14939;43.596;1.320;2022-12-11T15:05:58;3.10;93.60
27506;DHT22;14939;43.596;1.320;2022-12-11T15:08:29;3.00;93.60
27506;DHT22;14939;43.596;1.320;2022-12-11T15:11:14;2.90;93.30
27506;DHT22;14939;43.596;1.320;2022-12-11T15:16:23;2.90;93.30
27506;DHT22;14939;43.596;1.320;2022-12-11T15:18:51;2.90;94.00
27506;DHT22;14939;43.596;1.320;2022-12-11T15:21:18;2.90;93.70
27506;DHT22;14939;43.596;1.320;2022-12-11T15:23:54;2.80;94.10
27506;DHT22;14939;43.596;1.320;2022-12-11T15:26:33;2.90;93.80
27506;DHT22;14939;43.596;1.320;2022-12-11T15:29:01;2.90;94.70
27506;DHT22;14939;43.596;1.320;2022-12-11T15:31:29;2.80;95.50
27506;DHT22;14939;43.596;1.320;2022-12-11T15:33:56;3.00;96.30
27506;DHT22;14939;43.596;1.320;2022-12-11T15:36:33;3.10;96.60
27506;DHT22;14939;43.596;1.320;2022-12-11T15:39:00;3.10;96.90
27506;DHT22;14939;43.596;1.320;2022-12-11T15:41:27;3.20;97.10
27506;DHT22;14939;43.596;1.320;2022-12-11T15:44:00;3.20;97.10
27506;DHT22;14939;43.596;1.320;2022-12-11T15:46:26;3.10;97.30
27506;DHT22;14939;43.596;1.320;2022-12-11T15:48:51;3.10;97.60
27506;DHT22;14939;43.596;1.320;2022-12-11T15:51:17;3.20;97.50
27506;DHT22;14939;43.596;1.320;2022-12-11T15:53:43;3.20;97.40
27506;DHT22;14939;43.596;1.320;2022-12-11T15:56:13;3.20;97.10
27506;DHT22;14939;43.596;1.320;2022-12-11T15:58:40;3.20;97.00
27506;DHT22;14939;43.596;1.320;2022-12-11T16:01:07;3.20;97.00
27506;DHT22;14939;43.596;1.320;2022-12-11T16:03:33;3.20;97.30
27506;DHT22;14939;43.596;1.320;2022-12-11T16:05:58;3.20;97.90
27506;DHT22;14939;43.596;1.320;2022-12-11T16:08:24;3.10;98.30
27506;DHT22;14939;43.596;1.320;2022-12-11T16:10:52;3.10;99.20
27506;DHT22;14939;43.596;1.320;2022-12-11T16:13:18;3.00;99.60
27506;DHT22;14939;43.596;1.320;2022-12-11T16:15:48;2.80;99.90
27506;DHT22;14939;43.596;1.320;2022-12-11T16:18:20;2.80;99.90
27506;DHT22;14939;43.596;1.320;2022-12-11T16:20:46;2.70;99.90
27506;DHT22;14939;43.596;1.320;2022-12-11T16:23:13;2.70;99.90
27506;DHT22;14939;43.596;1.320;2022-12-11T16:25:41;2.60;99.90
27506;DHT22;14939;43.596;1.320;2022-12-11T16:28:09;2.50;99.90
27506;DHT22;14939;43.596;1.320;2022-12-11T16:30:36;2.40;99.90
27506;DHT22;14939;43.596;1.320;2022-12-11T16:33:03;2.30;99.90
27506;DHT22;14939;43.596;1.320;2022-12-11T16:35:29;2.40;99.90
27506;DHT22;14939;43.596;1.320;2022-12-11T16:37:55;2.40;99.90
27506;DHT22;14939;43.596;1.320;2022-12-11T16:40:22;2.40;99.90
27506;DHT22;14939;43.596;1.320;2022-12-11T16:42:48;2.20;99.90
27506;DHT22;14939;43.596;1.320;2022-12-11T16:45:19;2.10;99.90
27506;DHT22;14939;43.596;1.320;2022-12-11T16:47:46;2.00;99.90
27506;DHT22;14939;43.596;1.320;2022-12-11T16:50:13;2.10;99.90
27506;DHT22;14939;43.596;1.320;2022-12-11T16:52:41;2.10;99.90
27506;DHT22;14939;43.596;1.320;2022-12-11T16:55:08;2.10;99.90
27506;DHT22;14939;43.596;1.320;2022-12-11T16:57:34;2.00;99.90
27506;DHT22;14939;43.596;1.320;2022-12-11T17:00:00;1.90;99.90
27506;DHT22;14939;43.596;1.320;2022-12-11T17:02:26;1.90;99.90
27506;DHT22;14939;43.596;1.320;2022-12-11T17:04:52;1.80;99.90
27506;DHT22;14939;43.596;1.320;2022-12-11T17:07:18;1.80;99.90
27506;DHT22;14939;43.596;1.320;2022-12-11T17:09:44;1.70;99.90
27506;DHT22;14939;43.596;1.320;2022-12-11T17:12:10;1.70;99.90
27506;DHT22;14939;43.596;1.320;2022-12-11T17:14:36;1.50;99.90
27506;DHT22;14939;43.596;1.320;2022-12-11T17:17:02;1.50;99.90
27506;DHT22;14939;43.596;1.320;2022-12-11T17:19:28;1.60;99.90
27506;DHT22;14939;43.596;1.320;2022-12-11T17:21:53;1.70;99.90